Terminal Aerodrome Forecast
Issued by NWS

Home | Current Version | Previous Version | Text Only | Print | Product List | Glossary On
Versions: 1 2 3 4 5 6 7 8 9 10 11 12 13 14 15 16 17 18
000
FTUS44 KTSA 180520
TAFMLC
TAF
KMLC 180520Z 1806/1906 00000KT P6SM SCT250
     FM181200 00000KT 4SM BR SCT015 BKN250
     FM181500 20005KT P6SM SCT030 BKN250=

USA.gov is the U.S. government's official web portal to all federal, state and local government web resources and services.